createdAt,value
2018-03-11T00:00:49.061Z,3.98
2018-03-11T00:01:48.934Z,3.96
2018-03-11T00:02:48.803Z,3.97
2018-03-11T00:03:48.671Z,3.92
2018-03-11T00:04:48.549Z,3.94
2018-03-11T00:05:48.418Z,3.86
2018-03-11T00:06:48.290Z,3.97
2018-03-11T00:07:48.157Z,3.90
2018-03-11T00:08:48.029Z,3.92
2018-03-11T00:09:47.899Z,3.94
2018-03-11T00:10:47.775Z,3.89
2018-03-11T00:11:47.639Z,3.82
2018-03-11T00:12:47.527Z,3.85
2018-03-11T00:13:47.382Z,3.89
2018-03-11T00:14:47.252Z,3.97
2018-03-11T00:15:47.123Z,4.01
2018-03-11T00:16:46.993Z,3.97
2018-03-11T00:17:46.871Z,4.07
2018-03-11T00:18:46.736Z,4.14
2018-03-11T00:19:46.609Z,4.08
2018-03-11T00:20:46.480Z,4.07
2018-03-11T00:21:46.349Z,3.94
2018-03-11T00:22:46.220Z,3.98
2018-03-11T00:23:46.090Z,3.90
2018-03-11T00:24:45.967Z,3.96
2018-03-11T00:25:45.833Z,3.90
2018-03-11T00:26:45.705Z,3.88
2018-03-11T00:27:45.578Z,3.90
2018-03-11T00:28:45.445Z,4.00
2018-03-11T00:29:45.320Z,3.90
2018-03-11T00:30:45.188Z,3.98
2018-03-11T00:31:45.060Z,3.92
2018-03-11T00:32:44.931Z,3.90
2018-03-11T00:33:44.803Z,3.97
2018-03-11T00:34:44.689Z,3.85
2018-03-11T00:35:44.542Z,3.89
2018-03-11T00:36:44.415Z,3.94
2018-03-11T00:37:44.286Z,3.89
2018-03-11T00:38:44.173Z,3.85
2018-03-11T00:39:44.026Z,3.86
2018-03-11T00:40:43.902Z,3.88
2018-03-11T00:41:43.776Z,3.89
2018-03-11T00:42:43.643Z,3.88
2018-03-11T00:43:43.512Z,4.10
2018-03-11T00:44:43.383Z,4.12
2018-03-11T00:45:43.256Z,3.98
2018-03-11T00:46:43.123Z,3.94
2018-03-11T00:47:42.998Z,3.89
2018-03-11T00:48:42.869Z,3.90
2018-03-11T00:49:42.738Z,3.90
2018-03-11T00:50:42.607Z,3.83
2018-03-11T00:51:42.483Z,3.86
2018-03-11T00:52:42.353Z,3.89
2018-03-11T00:53:42.234Z,3.94
2018-03-11T00:54:42.094Z,3.90
2018-03-11T00:55:41.966Z,3.94
2018-03-11T00:56:41.838Z,3.90
2018-03-11T00:57:41.706Z,3.89
2018-03-11T00:58:41.579Z,3.96
2018-03-11T00:59:41.451Z,3.98
2018-03-11T01:00:41.322Z,4.00
2018-03-11T01:01:41.191Z,4.03
2018-03-11T01:02:41.062Z,3.89
2018-03-11T01:03:40.936Z,3.97
2018-03-11T01:04:40.805Z,4.06
2018-03-11T01:05:40.676Z,3.92
2018-03-11T01:06:40.549Z,3.98
2018-03-11T01:07:40.420Z,3.94
2018-03-11T01:08:40.289Z,3.97
2018-03-11T01:09:40.160Z,3.88
2018-03-11T01:10:40.033Z,3.89
2018-03-11T01:11:39.913Z,3.92
2018-03-11T01:12:39.775Z,3.82
2018-03-11T01:13:39.645Z,3.85
2018-03-11T01:14:39.518Z,3.71
2018-03-11T01:15:39.387Z,3.86
2018-03-11T01:16:39.262Z,3.82
2018-03-11T01:17:39.130Z,3.85
2018-03-11T01:18:39.002Z,3.78
2018-03-11T01:19:38.874Z,3.75
2018-03-11T01:20:38.744Z,3.64
2018-03-11T01:21:38.615Z,3.70
2018-03-11T01:22:38.485Z,3.54
2018-03-11T01:23:38.359Z,3.78
2018-03-11T01:24:38.229Z,3.75
2018-03-11T01:25:38.101Z,3.71
2018-03-11T01:26:37.971Z,3.78
2018-03-11T01:27:37.841Z,3.79
2018-03-11T01:28:37.712Z,3.76
2018-03-11T01:29:37.582Z,3.80
2018-03-11T01:30:37.452Z,3.72
2018-03-11T01:31:37.326Z,3.86
2018-03-11T01:32:37.196Z,3.92
2018-03-11T01:33:37.068Z,3.92
2018-03-11T01:34:36.940Z,3.94
2018-03-11T01:35:36.813Z,3.89
2018-03-11T01:36:36.682Z,3.90
2018-03-11T01:37:36.556Z,3.90
2018-03-11T01:38:36.423Z,3.86
2018-03-11T01:39:36.292Z,3.89
2018-03-11T01:40:36.163Z,3.75
2018-03-11T01:41:36.035Z,3.78
2018-03-11T01:42:35.905Z,3.83
2018-03-11T01:43:35.775Z,3.72
2018-03-11T01:44:35.646Z,3.79
2018-03-11T01:45:35.519Z,3.79
2018-03-11T01:46:35.391Z,3.78
2018-03-11T01:47:35.264Z,3.75
2018-03-11T01:48:35.129Z,3.75
2018-03-11T01:49:35.002Z,3.71
2018-03-11T01:50:34.871Z,3.89
2018-03-11T01:51:34.742Z,3.85
2018-03-11T01:52:34.614Z,3.90
2018-03-11T01:53:34.485Z,3.83
2018-03-11T01:54:34.357Z,3.76
2018-03-11T01:55:34.231Z,3.76
2018-03-11T01:56:34.098Z,3.75
2018-03-11T01:57:33.975Z,3.75
2018-03-11T01:58:33.843Z,3.72
2018-03-11T01:59:33.711Z,3.72
2018-03-11T02:00:33.584Z,3.71
2018-03-11T02:01:33.453Z,3.67
2018-03-11T02:02:33.324Z,3.62
2018-03-11T02:03:33.193Z,3.60
2018-03-11T02:04:33.090Z,3.65
2018-03-11T02:05:32.937Z,3.72
2018-03-11T02:06:32.809Z,3.79
2018-03-11T02:07:32.677Z,3.78
2018-03-11T02:08:32.548Z,3.85
2018-03-11T02:09:32.433Z,3.97
2018-03-11T02:10:32.288Z,3.90
2018-03-11T02:11:32.159Z,3.82
2018-03-11T02:12:32.032Z,3.76
2018-03-11T02:13:31.902Z,3.80
2018-03-11T02:14:31.772Z,3.76
2018-03-11T02:15:31.643Z,3.88
2018-03-11T02:16:31.516Z,3.89
2018-03-11T02:17:31.387Z,3.89
2018-03-11T02:18:31.256Z,3.85
2018-03-11T02:19:31.129Z,3.83
2018-03-11T02:20:30.999Z,3.80
2018-03-11T02:21:30.871Z,3.76
2018-03-11T02:22:30.739Z,3.82
2018-03-11T02:23:30.613Z,3.72
2018-03-11T02:24:30.482Z,3.88
2018-03-11T02:25:30.357Z,3.92
2018-03-11T02:26:30.224Z,3.90
2018-03-11T02:27:30.094Z,3.89
2018-03-11T02:28:29.967Z,3.85
2018-03-11T02:29:29.841Z,3.76
2018-03-11T02:30:29.708Z,3.80
2018-03-11T02:31:29.579Z,3.70
2018-03-11T02:32:29.449Z,3.80
2018-03-11T02:33:29.323Z,3.80
2018-03-11T02:34:29.193Z,3.80
2018-03-11T02:35:29.062Z,3.79
2018-03-11T02:36:28.934Z,3.78
2018-03-11T02:37:28.808Z,3.86
2018-03-11T02:38:28.674Z,3.85
2018-03-11T02:39:28.547Z,3.83
2018-03-11T02:40:28.418Z,3.68
2018-03-11T02:41:28.289Z,3.89
2018-03-11T02:42:28.160Z,3.75
2018-03-11T02:43:28.030Z,3.78
2018-03-11T02:44:27.901Z,3.85
2018-03-11T02:45:27.772Z,3.71
2018-03-11T02:46:27.644Z,3.86
2018-03-11T02:47:27.514Z,3.78
2018-03-11T02:48:27.389Z,3.82
2018-03-11T02:49:27.256Z,3.76
2018-03-11T02:50:27.124Z,3.75
2018-03-11T02:51:26.999Z,3.82
2018-03-11T02:52:26.867Z,3.80
2018-03-11T02:53:26.740Z,3.78
2018-03-11T02:54:26.608Z,3.80
2018-03-11T02:55:26.479Z,3.78
2018-03-11T02:56:26.353Z,3.83
2018-03-11T02:57:26.222Z,3.88
2018-03-11T02:58:26.090Z,3.92
2018-03-11T02:59:25.964Z,3.89
2018-03-11T03:00:25.835Z,3.86
2018-03-11T03:01:25.707Z,3.89
2018-03-11T03:02:25.574Z,3.71
2018-03-11T03:03:25.447Z,3.86
2018-03-11T03:04:25.318Z,3.75
2018-03-11T03:05:25.188Z,3.79
2018-03-11T03:06:25.059Z,3.88
2018-03-11T03:07:24.931Z,3.75
2018-03-11T03:08:24.805Z,3.76
2018-03-11T03:09:24.673Z,3.75
2018-03-11T03:10:24.542Z,3.86
2018-03-11T03:11:24.415Z,3.80
2018-03-11T03:12:24.283Z,3.82
2018-03-11T03:13:24.153Z,3.80
2018-03-11T03:14:24.026Z,3.75
2018-03-11T03:15:23.898Z,3.88
2018-03-11T03:16:23.766Z,3.94
2018-03-11T03:17:23.637Z,3.97
2018-03-11T03:18:23.506Z,3.90
2018-03-11T03:19:23.377Z,3.89
2018-03-11T03:20:23.252Z,3.88
2018-03-11T03:21:23.123Z,3.88
2018-03-11T03:22:22.990Z,3.75
2018-03-11T03:23:22.864Z,3.88
2018-03-11T03:24:22.732Z,3.82
2018-03-11T03:25:22.602Z,3.83
2018-03-11T03:26:22.477Z,3.89
2018-03-11T03:27:22.346Z,3.88
2018-03-11T03:28:22.216Z,3.92
2018-03-11T03:29:22.087Z,3.72
2018-03-11T03:30:21.957Z,3.83
2018-03-11T03:31:21.831Z,3.83
2018-03-11T03:32:21.703Z,3.82
2018-03-11T03:33:21.571Z,3.90
2018-03-11T03:34:21.440Z,3.96
2018-03-11T03:35:21.312Z,4.10
2018-03-11T03:36:21.186Z,4.36
2018-03-11T03:37:21.054Z,4.36
2018-03-11T03:38:20.925Z,4.36
2018-03-11T03:39:20.797Z,4.32
2018-03-11T03:40:20.670Z,4.26
2018-03-11T03:41:20.536Z,4.25
2018-03-11T03:42:20.408Z,4.21
2018-03-11T03:43:20.282Z,4.26
2018-03-11T03:44:20.152Z,4.28
2018-03-11T03:45:20.025Z,4.14
2018-03-11T03:46:19.893Z,4.08
2018-03-11T03:47:19.767Z,4.12
2018-03-11T03:48:19.638Z,4.10
2018-03-11T03:49:19.517Z,3.94
2018-03-11T03:50:19.379Z,4.01
2018-03-11T03:51:19.249Z,4.04
2018-03-11T03:52:19.122Z,3.94
2018-03-11T03:53:18.993Z,3.98
2018-03-11T03:54:18.863Z,3.98
2018-03-11T03:55:18.736Z,3.94
2018-03-11T03:56:18.609Z,3.90
2018-03-11T03:57:18.478Z,3.86
2018-03-11T03:58:18.350Z,3.88
2018-03-11T03:59:18.220Z,3.83
2018-03-11T04:00:18.091Z,3.86
2018-03-11T04:01:17.964Z,3.96
2018-03-11T04:02:17.835Z,3.89
2018-03-11T04:03:17.705Z,3.92
2018-03-11T04:04:17.577Z,3.94
2018-03-11T04:05:17.452Z,3.97
2018-03-11T04:06:17.319Z,3.98
2018-03-11T04:07:17.189Z,4.04
2018-03-11T04:08:17.062Z,3.90
2018-03-11T04:09:16.932Z,3.90
2018-03-11T04:10:16.804Z,3.94
2018-03-11T04:11:16.681Z,3.90
2018-03-11T04:12:16.551Z,3.96
2018-03-11T04:13:16.418Z,3.94
2018-03-11T04:14:16.286Z,3.98
2018-03-11T04:15:16.160Z,4.01
2018-03-11T04:16:16.031Z,4.04
2018-03-11T04:17:15.902Z,4.00
2018-03-11T04:18:15.774Z,4.04
2018-03-11T04:19:15.642Z,4.26
2018-03-11T04:20:15.516Z,4.40
2018-03-11T04:21:15.388Z,4.46
2018-03-11T04:22:15.255Z,4.43
2018-03-11T04:23:15.130Z,4.37
2018-03-11T04:24:15.000Z,4.44
2018-03-11T04:25:14.869Z,4.42
2018-03-11T04:26:14.745Z,4.57
2018-03-11T04:27:14.611Z,4.65
2018-03-11T04:28:14.485Z,4.67
2018-03-11T04:29:14.356Z,4.61
2018-03-11T04:30:14.241Z,4.52
2018-03-11T04:31:14.099Z,4.55
2018-03-11T04:32:13.969Z,4.54
2018-03-11T04:33:13.838Z,4.50
2018-03-11T04:34:13.711Z,4.46
2018-03-11T04:35:13.583Z,4.54
2018-03-11T04:36:13.453Z,4.43
2018-03-11T04:37:13.324Z,4.52
2018-03-11T04:38:13.195Z,4.51
2018-03-11T04:39:13.064Z,4.62
2018-03-11T04:40:12.939Z,4.70
2018-03-11T04:41:12.812Z,4.76
2018-03-11T04:42:12.678Z,4.83
2018-03-11T04:43:12.553Z,4.77
2018-03-11T04:44:12.423Z,4.77
2018-03-11T04:45:12.294Z,4.64
2018-03-11T04:46:12.165Z,4.65
2018-03-11T04:47:12.038Z,4.55
2018-03-11T04:48:11.908Z,4.55
2018-03-11T04:49:11.780Z,4.59
2018-03-11T04:50:11.651Z,4.62
2018-03-11T04:51:11.526Z,4.54
2018-03-11T04:52:11.395Z,4.51
2018-03-11T04:53:11.268Z,4.42
2018-03-11T04:54:11.140Z,4.21
2018-03-11T04:55:11.017Z,4.16
2018-03-11T04:56:10.879Z,4.15
2018-03-11T04:57:10.753Z,4.03
2018-03-11T04:58:10.626Z,3.92
2018-03-11T04:59:10.496Z,3.89
2018-03-11T05:00:10.369Z,3.79
2018-03-11T05:01:10.242Z,3.78
2018-03-11T05:02:10.113Z,3.88
2018-03-11T05:03:09.985Z,4.03
2018-03-11T05:04:09.853Z,4.01
2018-03-11T05:05:09.726Z,4.04
2018-03-11T05:06:09.596Z,3.98
2018-03-11T05:07:09.468Z,3.98
2018-03-11T05:08:09.341Z,4.04
2018-03-11T05:09:09.211Z,4.01
2018-03-11T05:10:09.083Z,4.04
2018-03-11T05:11:08.957Z,3.89
2018-03-11T05:12:08.826Z,3.88
2018-03-11T05:13:08.695Z,3.92
2018-03-11T05:14:08.569Z,3.90
2018-03-11T05:15:08.438Z,3.85
2018-03-11T05:16:08.312Z,3.96
2018-03-11T05:17:08.182Z,3.92
2018-03-11T05:18:08.059Z,3.97
2018-03-11T05:19:07.922Z,3.89
2018-03-11T05:20:07.794Z,3.88
2018-03-11T05:21:07.664Z,3.86
2018-03-11T05:22:07.537Z,3.96
2018-03-11T05:23:07.407Z,3.96
2018-03-11T05:24:07.280Z,3.90
2018-03-11T05:25:07.148Z,3.92
2018-03-11T05:26:07.018Z,4.00
2018-03-11T05:27:06.892Z,4.00
2018-03-11T05:28:06.770Z,4.07
2018-03-11T05:29:06.634Z,4.10
2018-03-11T05:30:06.503Z,4.14
2018-03-11T05:31:06.375Z,4.16
2018-03-11T05:32:06.260Z,4.18
2018-03-11T05:33:06.119Z,4.10
2018-03-11T05:34:05.987Z,4.16
2018-03-11T05:35:05.863Z,4.16
2018-03-11T05:36:05.729Z,4.12
2018-03-11T05:37:05.600Z,4.07
2018-03-11T05:38:05.475Z,3.96
2018-03-11T05:39:05.343Z,4.03
2018-03-11T05:40:05.216Z,4.07
2018-03-11T05:41:05.084Z,4.16
2018-03-11T05:42:04.955Z,4.14
2018-03-11T05:43:04.825Z,4.22
2018-03-11T05:44:04.698Z,4.10
2018-03-11T05:45:04.569Z,4.12
2018-03-11T05:46:04.442Z,4.14
2018-03-11T05:47:04.328Z,4.16
2018-03-11T05:48:04.182Z,4.07
2018-03-11T05:49:04.053Z,4.14
2018-03-11T05:50:03.925Z,4.19
2018-03-11T05:51:03.793Z,4.25
2018-03-11T05:52:03.663Z,4.32
2018-03-11T05:53:03.536Z,4.19
2018-03-11T05:54:03.409Z,4.12
2018-03-11T05:55:03.278Z,4.12
2018-03-11T05:56:03.149Z,4.12
2018-03-11T05:57:03.021Z,4.18
2018-03-11T05:58:02.896Z,4.19
2018-03-11T05:59:02.761Z,4.18
2018-03-11T06:00:02.635Z,4.19
2018-03-11T06:01:02.507Z,4.33
2018-03-11T06:02:02.375Z,4.37
2018-03-11T06:03:02.245Z,4.39
2018-03-11T06:04:02.118Z,4.39
2018-03-11T06:05:02.027Z,4.34
2018-03-11T06:06:01.858Z,4.29
2018-03-11T06:07:01.730Z,4.44
2018-03-11T06:08:01.603Z,4.64
2018-03-11T06:09:01.473Z,4.59
2018-03-11T06:10:01.347Z,4.55
2018-03-11T06:11:01.214Z,4.42
2018-03-11T06:12:01.085Z,4.47
2018-03-11T06:13:00.957Z,4.47
2018-03-11T06:14:00.827Z,4.46
2018-03-11T06:15:00.698Z,4.42
2018-03-11T06:16:00.570Z,4.44
2018-03-11T06:17:00.440Z,4.40
2018-03-11T06:18:00.309Z,4.47
2018-03-11T06:19:00.183Z,4.52
2018-03-11T06:20:00.057Z,4.55
2018-03-11T06:20:59.925Z,4.47
2018-03-11T06:21:59.795Z,4.54
2018-03-11T06:22:59.667Z,4.50
2018-03-11T06:23:59.541Z,4.59
2018-03-11T06:24:59.410Z,4.51
2018-03-11T06:25:59.293Z,4.55
2018-03-11T06:26:59.155Z,4.57
2018-03-11T06:27:59.027Z,4.47
2018-03-11T06:28:58.899Z,4.37
2018-03-11T06:29:58.778Z,4.43
2018-03-11T06:30:58.641Z,4.42
2018-03-11T06:31:58.511Z,4.55
2018-03-11T06:32:58.385Z,4.46
2018-03-11T06:33:58.253Z,4.47
2018-03-11T06:34:58.130Z,4.64
2018-03-11T06:35:57.995Z,4.70
2018-03-11T06:36:57.868Z,4.67
2018-03-11T06:37:57.747Z,4.69
2018-03-11T06:38:57.638Z,4.65
2018-03-11T06:39:57.482Z,4.58
2018-03-11T06:40:57.355Z,4.65
2018-03-11T06:41:57.226Z,4.61
2018-03-11T06:42:57.098Z,4.76
2018-03-11T06:43:56.970Z,4.69
2018-03-11T06:44:56.837Z,4.76
2018-03-11T06:45:56.717Z,4.79
2018-03-11T06:46:56.581Z,4.67
2018-03-11T06:47:56.452Z,4.75
2018-03-11T06:48:56.327Z,4.75
2018-03-11T06:49:56.196Z,4.70
2018-03-11T06:50:56.068Z,4.92
2018-03-11T06:51:55.943Z,5.01
2018-03-11T06:52:55.810Z,4.98
2018-03-11T06:53:55.683Z,4.96
2018-03-11T06:54:55.554Z,4.79
2018-03-11T06:55:55.429Z,4.94
2018-03-11T06:56:55.300Z,4.86
2018-03-11T06:57:55.169Z,4.89
2018-03-11T06:58:55.040Z,4.76
2018-03-11T06:59:54.924Z,4.72
2018-03-11T07:00:54.785Z,4.62
2018-03-11T07:01:54.654Z,4.76
2018-03-11T07:02:54.526Z,4.77
2018-03-11T07:03:54.398Z,4.70
2018-03-11T07:04:54.277Z,4.80
2018-03-11T07:05:54.142Z,4.75
2018-03-11T07:06:54.012Z,4.79
2018-03-11T07:07:53.890Z,4.80
2018-03-11T07:08:53.981Z,4.79
2018-03-11T07:09:53.632Z,4.95
2018-03-11T07:10:53.542Z,5.01
2018-03-11T07:11:53.375Z,4.94
2018-03-11T07:12:53.248Z,5.16
2018-03-11T07:13:53.142Z,5.19
2018-03-11T07:14:53.128Z,5.20
2018-03-11T07:15:52.865Z,5.13
2018-03-11T07:16:52.734Z,5.16
2018-03-11T07:17:52.605Z,5.30
2018-03-11T07:18:52.476Z,5.34
2018-03-11T07:19:52.370Z,5.48
2018-03-11T07:20:52.221Z,5.41
2018-03-11T07:21:52.094Z,5.50
2018-03-11T07:22:51.966Z,5.48
2018-03-11T07:23:51.874Z,5.34
2018-03-11T07:24:51.711Z,5.38
2018-03-11T07:25:51.584Z,5.37
2018-03-11T07:26:51.456Z,5.46
2018-03-11T07:27:51.325Z,5.43
2018-03-11T07:28:51.197Z,5.34
2018-03-11T07:29:51.091Z,5.28
2018-03-11T07:30:50.946Z,5.30
2018-03-11T07:31:50.815Z,5.38
2018-03-11T07:32:50.687Z,5.38
2018-03-11T07:33:50.557Z,5.37
2018-03-11T07:34:50.493Z,5.57
2018-03-11T07:35:50.311Z,5.55
2018-03-11T07:36:50.190Z,5.53
2018-03-11T07:37:50.048Z,5.63
2018-03-11T07:38:50.043Z,5.56
2018-03-11T07:39:49.801Z,5.53
2018-03-11T07:40:49.667Z,5.53
2018-03-11T07:41:49.538Z,5.38
2018-03-11T07:42:49.407Z,5.30
2018-03-11T07:43:49.384Z,5.28
2018-03-11T07:44:49.185Z,5.23
2018-03-11T07:45:49.027Z,5.32
2018-03-11T07:46:48.901Z,5.32
2018-03-11T07:47:48.774Z,5.41
2018-03-11T07:48:48.645Z,5.35
2018-03-11T07:49:48.518Z,5.37
2018-03-11T07:50:48.429Z,5.35
2018-03-11T07:51:48.263Z,5.53
2018-03-11T07:52:48.136Z,5.68
2018-03-11T07:53:48.008Z,5.81
2018-03-11T07:54:47.878Z,5.75
2018-03-11T07:55:47.754Z,5.74
2018-03-11T07:56:47.631Z,5.81
2018-03-11T07:57:47.499Z,5.85
2018-03-11T07:58:47.372Z,5.86
2018-03-11T07:59:47.244Z,6.00
2018-03-11T08:00:47.118Z,5.88
2018-03-11T08:01:47.017Z,5.93
2018-03-11T08:02:46.860Z,5.95
2018-03-11T08:03:46.737Z,5.82
2018-03-11T08:04:46.630Z,5.96
2018-03-11T08:05:46.615Z,6.06
2018-03-11T08:06:46.365Z,6.11
2018-03-11T08:07:46.225Z,6.35
2018-03-11T08:08:46.097Z,6.50
2018-03-11T08:09:45.971Z,6.53
2018-03-11T08:10:45.849Z,6.71
2018-03-11T08:11:45.715Z,6.62
2018-03-11T08:12:45.595Z,6.69
2018-03-11T08:13:45.464Z,6.73
2018-03-11T08:14:45.339Z,6.77
2018-03-11T08:15:45.210Z,6.77
2018-03-11T08:16:45.082Z,6.81
2018-03-11T08:17:44.955Z,6.72
2018-03-11T08:18:44.834Z,6.79
2018-03-11T08:19:44.701Z,6.76
2018-03-11T08:20:44.576Z,6.86
2018-03-11T08:21:44.450Z,7.32
2018-03-11T08:22:44.332Z,7.58
2018-03-11T08:23:44.196Z,7.58
2018-03-11T08:24:44.069Z,7.96
2018-03-11T08:25:43.945Z,8.36
2018-03-11T08:26:43.818Z,8.54
2018-03-11T08:27:43.692Z,8.54
2018-03-11T08:28:43.566Z,8.66
2018-03-11T08:29:43.438Z,8.54
2018-03-11T08:30:43.317Z,8.63
2018-03-11T08:31:43.188Z,8.79
2018-03-11T08:32:43.062Z,8.66
2018-03-11T08:33:42.934Z,8.63
2018-03-11T08:34:42.810Z,8.72
2018-03-11T08:35:42.682Z,8.68
2018-03-11T08:36:42.557Z,8.53
2018-03-11T08:37:42.433Z,8.81
2018-03-11T08:38:42.307Z,8.99
2018-03-11T08:39:42.179Z,9.01
2018-03-11T08:40:42.057Z,8.79
2018-03-11T08:41:41.929Z,9.15
2018-03-11T08:42:41.802Z,9.02
2018-03-11T08:43:41.678Z,9.12
2018-03-11T08:44:41.552Z,9.04
2018-03-11T08:45:41.424Z,8.79
2018-03-11T08:46:41.300Z,8.53
2018-03-11T08:47:41.181Z,8.37
2018-03-11T08:48:41.052Z,8.20
2018-03-11T08:49:40.924Z,8.26
2018-03-11T08:50:40.808Z,8.58
2018-03-11T08:51:40.672Z,8.86
2018-03-11T08:52:40.549Z,8.96
2018-03-11T08:53:40.422Z,8.79
2018-03-11T08:54:40.298Z,8.96
2018-03-11T08:55:40.173Z,9.16
2018-03-11T08:56:40.050Z,9.34
2018-03-11T08:57:39.925Z,9.32
2018-03-11T08:58:39.799Z,9.15
2018-03-11T08:59:39.687Z,8.84
2018-03-11T09:00:39.852Z,9.34
2018-03-11T09:01:39.422Z,9.24
2018-03-11T09:02:39.300Z,9.58
2018-03-11T09:03:39.174Z,9.67
2018-03-11T09:04:39.050Z,9.68
2018-03-11T09:05:38.923Z,9.97
2018-03-11T09:06:38.799Z,10.00
2018-03-11T09:07:38.678Z,10.14
2018-03-11T09:08:38.549Z,10.18
2018-03-11T09:09:38.491Z,10.24
2018-03-11T09:10:38.347Z,10.26
2018-03-11T09:11:38.175Z,10.21
2018-03-11T09:12:38.056Z,10.14
2018-03-11T09:13:37.964Z,9.58
2018-03-11T09:14:37.806Z,9.39
2018-03-11T09:15:37.690Z,9.52
2018-03-11T09:16:37.557Z,9.86
2018-03-11T09:17:37.433Z,10.15
2018-03-11T09:18:37.340Z,10.14
2018-03-11T09:19:37.186Z,10.10
2018-03-11T09:20:37.059Z,9.83
2018-03-11T09:21:37.181Z,9.79
2018-03-11T09:22:36.817Z,9.60
2018-03-11T09:23:36.688Z,9.40
2018-03-11T09:24:36.562Z,9.28
2018-03-11T09:25:36.523Z,9.23
2018-03-11T09:26:36.401Z,9.09
2018-03-11T09:27:36.197Z,8.58
2018-03-11T09:28:36.072Z,8.71
2018-03-11T09:29:35.944Z,9.20
2018-03-11T09:30:35.820Z,9.40
2018-03-11T09:31:35.699Z,9.63
2018-03-11T09:32:35.576Z,9.56
2018-03-11T09:33:35.448Z,9.18
2018-03-11T09:34:35.325Z,8.81
2018-03-11T09:35:35.200Z,8.66
2018-03-11T09:36:35.075Z,8.83
2018-03-11T09:37:34.950Z,8.90
2018-03-11T09:38:34.828Z,9.10
2018-03-11T09:39:34.704Z,9.20
2018-03-11T09:40:34.578Z,9.21
2018-03-11T09:41:34.524Z,9.15
2018-03-11T09:42:34.347Z,9.32
2018-03-11T09:43:34.205Z,9.42
2018-03-11T09:44:34.082Z,9.64
2018-03-11T09:45:33.955Z,9.82
2018-03-11T09:46:33.844Z,9.91
2018-03-11T09:47:33.712Z,9.86
2018-03-11T09:48:33.585Z,9.70
2018-03-11T09:49:33.462Z,9.56
2018-03-11T09:50:33.337Z,9.53
2018-03-11T09:51:33.220Z,9.57
2018-03-11T09:52:33.109Z,9.57
2018-03-11T09:53:32.968Z,9.61
2018-03-11T09:54:32.869Z,9.94
2018-03-11T09:55:32.815Z,9.89
2018-03-11T09:56:32.600Z,10.28
2018-03-11T09:57:32.478Z,10.37
2018-03-11T09:58:32.403Z,10.24
2018-03-11T09:59:32.228Z,10.26
2018-03-11T10:00:32.104Z,10.39
2018-03-11T10:01:31.979Z,10.77
2018-03-11T10:02:31.856Z,11.49
2018-03-11T10:03:31.734Z,11.93
2018-03-11T10:04:31.610Z,12.19
2018-03-11T10:05:31.486Z,12.49
2018-03-11T10:06:31.414Z,12.20
2018-03-11T10:07:31.247Z,12.20
2018-03-11T10:08:31.121Z,11.59
2018-03-11T10:09:31.000Z,11.74
2018-03-11T10:10:30.876Z,11.61
2018-03-11T10:11:30.752Z,11.21
2018-03-11T10:12:30.630Z,11.36
2018-03-11T10:13:30.570Z,11.17
2018-03-11T10:14:30.388Z,11.34
2018-03-11T10:15:30.264Z,11.57
2018-03-11T10:16:30.146Z,11.97
2018-03-11T10:17:30.023Z,11.85
2018-03-11T10:18:29.900Z,11.75
2018-03-11T10:19:29.780Z,11.85
2018-03-11T10:20:29.657Z,11.85
2018-03-11T10:21:29.533Z,11.80
2018-03-11T10:22:29.413Z,11.99
2018-03-11T10:23:29.294Z,12.12
2018-03-11T10:24:29.172Z,12.09
2018-03-11T10:25:29.048Z,12.20
2018-03-11T10:26:28.928Z,12.26
2018-03-11T10:27:28.805Z,12.34
2018-03-11T10:28:28.685Z,12.33
2018-03-11T10:29:28.606Z,12.34
2018-03-11T10:30:28.441Z,12.31
2018-03-11T10:31:28.320Z,12.33
2018-03-11T10:32:28.200Z,12.51
2018-03-11T10:33:28.077Z,12.84
2018-03-11T10:34:27.956Z,12.84
2018-03-11T10:35:27.835Z,12.82
2018-03-11T10:36:27.715Z,12.89
2018-03-11T10:37:27.594Z,12.85
2018-03-11T10:38:27.475Z,12.77
2018-03-11T10:39:27.351Z,12.59
2018-03-11T10:40:27.230Z,12.37
2018-03-11T10:41:27.110Z,12.31
2018-03-11T10:42:26.991Z,12.39
2018-03-11T10:43:26.908Z,11.86
2018-03-11T10:44:26.781Z,11.65
2018-03-11T10:45:26.628Z,11.78
2018-03-11T10:46:26.502Z,11.87
2018-03-11T10:47:26.381Z,11.93
2018-03-11T10:48:26.260Z,11.82
2018-03-11T10:49:26.140Z,11.71
2018-03-11T10:50:26.022Z,11.59
2018-03-11T10:51:25.895Z,11.49
2018-03-11T10:52:25.771Z,11.43
2018-03-11T10:53:25.650Z,11.35
2018-03-11T10:54:25.532Z,11.36
2018-03-11T10:55:25.405Z,11.46
2018-03-11T10:56:25.353Z,11.46
2018-03-11T10:57:25.160Z,11.39
2018-03-11T10:58:25.037Z,11.54
2018-03-11T10:59:24.917Z,11.61
2018-03-11T11:00:24.811Z,11.41
2018-03-11T11:01:24.743Z,11.31
2018-03-11T11:02:24.553Z,11.28
2018-03-11T11:03:24.426Z,11.24
2018-03-11T11:04:24.303Z,11.35
2018-03-11T11:05:24.183Z,11.39
2018-03-11T11:06:24.058Z,11.31
2018-03-11T11:07:23.937Z,11.27
2018-03-11T11:08:23.828Z,11.21
2018-03-11T11:09:24.183Z,11.13
2018-03-11T11:10:23.566Z,11.14
2018-03-11T11:11:23.449Z,11.20
2018-03-11T11:12:23.324Z,11.28
2018-03-11T11:13:23.197Z,11.24
2018-03-11T11:14:23.079Z,11.10
2018-03-11T11:15:22.953Z,11.25
2018-03-11T11:16:22.830Z,11.20
2018-03-11T11:17:22.710Z,11.24
2018-03-11T11:18:22.585Z,11.17
2018-03-11T11:19:22.464Z,11.19
2018-03-11T11:20:22.338Z,11.19
2018-03-11T11:21:22.236Z,11.02
2018-03-11T11:22:22.096Z,11.06
2018-03-11T11:23:21.969Z,10.89
2018-03-11T11:24:21.845Z,10.91
2018-03-11T11:25:21.725Z,10.81
2018-03-11T11:26:21.600Z,10.92
2018-03-11T11:27:21.477Z,10.95
2018-03-11T11:28:21.354Z,11.07
2018-03-11T11:29:21.237Z,11.27
2018-03-11T11:30:21.111Z,11.21
2018-03-11T11:31:20.984Z,11.19
2018-03-11T11:32:20.863Z,11.01
2018-03-11T11:33:20.740Z,10.91
2018-03-11T11:34:20.613Z,11.02
2018-03-11T11:35:20.490Z,11.21
2018-03-11T11:36:20.370Z,11.21
2018-03-11T11:37:20.246Z,11.47
2018-03-11T11:38:20.120Z,11.50
2018-03-11T11:39:20.001Z,11.39
2018-03-11T11:40:19.878Z,11.36
2018-03-11T11:41:19.753Z,11.39
2018-03-11T11:42:19.628Z,11.44
2018-03-11T11:43:19.506Z,11.57
2018-03-11T11:44:19.385Z,11.57
2018-03-11T11:45:19.263Z,11.61
2018-03-11T11:46:19.142Z,11.43
2018-03-11T11:47:19.018Z,11.47
2018-03-11T11:48:18.892Z,11.41
2018-03-11T11:49:18.772Z,11.43
2018-03-11T11:50:18.648Z,11.41
2018-03-11T11:51:18.526Z,11.27
2018-03-11T11:52:18.405Z,11.17
2018-03-11T11:53:18.300Z,10.96
2018-03-11T11:54:18.159Z,11.06
2018-03-11T11:55:18.039Z,11.14
2018-03-11T11:56:17.912Z,11.11
2018-03-11T11:57:17.789Z,10.91
2018-03-11T11:58:17.667Z,10.84
2018-03-11T11:59:17.542Z,10.91
2018-03-11T12:00:17.422Z,10.98
2018-03-11T12:01:17.296Z,10.89
2018-03-11T12:02:17.172Z,11.03
2018-03-11T12:03:17.050Z,10.91
2018-03-11T12:04:16.931Z,10.89
2018-03-11T12:05:16.809Z,10.78
2018-03-11T12:06:16.684Z,10.73
2018-03-11T12:07:16.560Z,10.59
